createdAt,value
2023-04-19T03:14:19.187Z,98587.94
2023-04-19T03:16:45.969Z,98576.75
2023-04-19T03:19:12.799Z,98575.66
2023-04-19T03:21:46.866Z,98575.53
2023-04-19T03:24:13.688Z,98576.50
2023-04-19T03:26:46.355Z,98565.66
2023-04-19T03:29:14.376Z,98566.50
2023-04-19T03:31:51.175Z,98566.50
2023-04-19T03:34:18.803Z,98559.88
2023-04-19T03:36:48.023Z,98561.31
2023-04-19T03:39:14.569Z,98545.63
2023-04-19T03:41:43.592Z,98542.97
2023-04-19T03:44:18.496Z,98556.38
2023-04-19T03:46:46.841Z,98556.97
2023-04-19T03:49:15.346Z,98556.38
2023-04-19T03:51:44.553Z,98556.75
2023-04-19T03:54:12.357Z,98552.88
2023-04-19T03:56:38.916Z,98554.34
2023-04-19T03:59:05.803Z,98557.94
2023-04-19T04:01:35.568Z,98545.53
2023-04-19T04:04:04.819Z,98542.63
2023-04-19T04:06:31.842Z,98533.22
2023-04-19T04:08:58.518Z,98545.75
2023-04-19T04:11:25.874Z,98552.88
2023-04-19T04:13:52.666Z,98553.59
2023-04-19T04:16:23.734Z,98550.72
2023-04-19T04:18:52.607Z,98556.47
2023-04-19T04:21:19.580Z,98560.47
2023-04-19T04:23:49.759Z,98558.44
2023-04-19T04:26:25.375Z,98564.16
2023-04-19T04:29:08.566Z,98562.91
2023-04-19T04:31:36.446Z,98555.91
2023-04-19T04:34:03.717Z,98566.75
2023-04-19T04:36:32.115Z,98567.47
2023-04-19T04:39:01.818Z,98563.50
2023-04-19T04:41:31.519Z,98547.25
2023-04-19T04:44:12.223Z,98548.69
2023-04-19T04:46:42.869Z,98556.75
2023-04-19T04:49:12.588Z,98548.44
2023-04-19T04:51:41.873Z,98554.81
2023-04-19T04:54:09.354Z,98535.38
2023-04-19T04:56:36.816Z,98544.31
2023-04-19T04:59:03.510Z,98546.91
2023-04-19T05:01:34.467Z,98545.66
2023-04-19T05:04:01.821Z,98549.19
2023-04-19T05:06:28.509Z,98556.75
2023-04-19T05:08:55.076Z,98545.38
2023-04-19T05:11:30.954Z,98550.19
2023-04-19T05:13:58.467Z,98547.28
2023-04-19T05:16:26.717Z,98542.28
2023-04-19T05:18:53.489Z,98551.69
2023-04-19T05:21:20.311Z,98538.69
2023-04-19T05:23:46.931Z,98554.97
2023-04-19T05:26:15.501Z,98556.06
2023-04-19T05:28:45.347Z,98556.56
2023-04-19T05:31:21.051Z,98545.69
2023-04-19T05:34:22.035Z,98545.97
2023-04-19T05:36:49.350Z,98547.81
2023-04-19T05:39:16.984Z,98548.53
2023-04-19T05:41:43.825Z,98545.34
2023-04-19T05:44:10.467Z,98546.84
2023-04-19T05:46:37.283Z,98540.00
2023-04-19T05:49:05.257Z,98548.25
2023-04-19T05:51:50.428Z,98546.00
2023-04-19T05:54:34.394Z,98525.84
2023-04-19T05:57:01.430Z,98542.13
2023-04-19T05:59:28.396Z,98533.50
2023-04-19T06:01:56.308Z,98535.63
2023-04-19T06:04:23.635Z,98524.81
2023-04-19T06:06:50.743Z,98532.56
2023-04-19T06:09:18.468Z,98527.94
2023-04-19T06:11:50.655Z,98523.03
2023-04-19T06:14:18.187Z,98521.47
2023-04-19T06:16:45.359Z,98523.97
2023-04-19T06:19:12.048Z,98525.53
2023-04-19T06:21:38.609Z,98533.13
2023-04-19T06:24:07.278Z,98528.22
2023-04-19T06:26:33.768Z,98522.22
2023-04-19T06:29:00.423Z,98510.81
2023-04-19T06:31:27.048Z,98521.06
2023-04-19T06:33:53.630Z,98507.47
2023-04-19T06:36:20.274Z,98517.00
2023-04-19T06:38:46.860Z,98513.94
2023-04-19T06:41:13.461Z,98519.53
2023-04-19T06:43:40.894Z,98493.41
2023-04-19T06:46:07.855Z,98499.63
2023-04-19T06:48:35.064Z,98500.16
2023-04-19T06:51:01.849Z,98496.34
2023-04-19T06:53:28.427Z,98493.13
2023-04-19T06:56:00.976Z,98495.50
2023-04-19T06:58:28.322Z,98494.44
2023-04-19T07:00:55.432Z,98496.66
2023-04-19T07:03:22.567Z,98499.31
2023-04-19T07:05:49.732Z,98487.25
2023-04-19T07:08:16.330Z,98480.38
2023-04-19T07:10:43.840Z,98480.09
2023-04-19T07:13:11.435Z,98481.13
2023-04-19T07:15:38.298Z,98484.31
2023-04-19T07:18:05.049Z,98479.88
2023-04-19T07:20:31.707Z,98465.97
2023-04-19T07:23:01.010Z,98461.72
2023-04-19T07:25:27.602Z,98479.97
2023-04-19T07:27:54.899Z,98481.50
2023-04-19T07:30:21.511Z,98474.13
2023-04-19T07:32:48.216Z,98456.88
2023-04-19T07:35:14.893Z,98477.63
2023-04-19T07:37:42.320Z,98469.72
2023-04-19T07:40:09.508Z,98467.91
2023-04-19T07:42:36.118Z,98476.72
2023-04-19T07:45:03.022Z,98471.72
2023-04-19T07:47:29.649Z,98469.97
2023-04-19T07:49:56.437Z,98473.56
2023-04-19T07:52:22.997Z,98467.03
2023-04-19T07:54:49.664Z,98475.72
2023-04-19T07:57:16.209Z,98471.44
2023-04-19T07:59:42.764Z,98457.06
2023-04-19T08:02:09.502Z,98452.06
2023-04-19T08:04:37.516Z,98459.34
2023-04-19T08:07:04.782Z,98455.31
2023-04-19T08:09:34.022Z,98455.69
2023-04-19T08:12:01.485Z,98456.50
2023-04-19T08:14:37.746Z,98461.34
2023-04-19T08:17:24.081Z,98462.00
2023-04-19T08:19:53.730Z,98463.97
2023-04-19T08:22:21.505Z,98459.47
2023-04-19T08:24:52.006Z,98460.16
2023-04-19T08:27:19.864Z,98459.91
2023-04-19T08:29:46.496Z,98459.50
2023-04-19T08:32:13.383Z,98460.19
2023-04-19T08:34:40.302Z,98472.31
2023-04-19T08:37:07.320Z,98464.75
2023-04-19T08:39:34.919Z,98474.69
2023-04-19T08:42:09.219Z,98473.91
2023-04-19T08:44:50.960Z,98468.53
2023-04-19T08:47:30.156Z,98482.81
2023-04-19T08:50:16.739Z,98487.50
2023-04-19T08:52:54.816Z,98485.44
2023-04-19T08:55:24.015Z,98466.91
2023-04-19T08:57:50.797Z,98491.03
2023-04-19T09:00:17.880Z,98487.84
2023-04-19T09:02:47.655Z,98479.97
2023-04-19T09:05:16.464Z,98488.78
2023-04-19T09:07:43.489Z,98494.16
2023-04-19T09:10:12.336Z,98487.97
2023-04-19T09:12:40.036Z,98489.91
2023-04-19T09:15:10.229Z,98511.78
2023-04-19T09:17:37.897Z,98552.47
2023-04-19T09:20:25.688Z,98523.66
2023-04-19T09:23:07.268Z,98564.88
2023-04-19T09:25:52.896Z,98560.16
2023-04-19T09:29:02.659Z,98554.53
2023-04-19T09:31:50.166Z,98581.09
2023-04-19T09:34:18.756Z,98579.84
2023-04-19T09:36:46.934Z,98568.44
2023-04-19T09:39:14.646Z,98560.66
2023-04-19T09:41:52.761Z,98559.31
2023-04-19T09:46:53.375Z,98611.84
2023-04-19T09:49:41.196Z,98618.53
2023-04-19T09:52:14.389Z,98598.63
2023-04-19T09:54:41.782Z,98599.63
2023-04-19T09:57:08.420Z,98620.81
2023-04-19T09:59:35.156Z,98613.69
2023-04-19T10:02:04.776Z,98615.72
2023-04-19T10:04:44.188Z,98594.91
2023-04-19T10:07:29.969Z,98599.91
2023-04-19T10:10:11.881Z,98600.66
2023-04-19T10:13:11.578Z,98618.00
2023-04-19T10:18:09.728Z,98643.00
2023-04-19T10:20:49.413Z,98682.59
2023-04-19T10:23:17.568Z,98685.19
2023-04-19T10:25:47.840Z,98665.75
2023-04-19T10:28:16.390Z,98658.38
2023-04-19T10:30:58.516Z,98670.66
2023-04-19T10:33:29.539Z,98703.72
2023-04-19T10:35:57.926Z,98711.44
2023-04-19T10:38:48.071Z,98716.09
2023-04-19T10:41:17.873Z,98791.16
2023-04-19T10:43:46.689Z,98802.28
2023-04-19T10:46:22.252Z,98806.06
2023-04-19T10:48:53.743Z,98801.66
2023-04-19T10:51:23.580Z,98790.09
2023-04-19T10:53:55.991Z,98794.63
2023-04-19T10:57:02.208Z,98782.72
2023-04-19T10:59:33.262Z,98794.47
2023-04-19T11:02:02.612Z,98780.25
2023-04-19T11:04:32.392Z,98778.69
2023-04-19T11:07:07.212Z,98775.66
2023-04-19T11:09:39.221Z,98774.56
2023-04-19T11:12:16.793Z,98757.97
2023-04-19T11:14:48.125Z,98776.50
2023-04-19T11:17:27.192Z,98781.63
2023-04-19T11:19:59.554Z,98771.06
2023-04-19T11:22:38.364Z,98763.59
2023-04-19T11:25:25.171Z,98757.66
2023-04-19T11:27:53.039Z,98744.38
2023-04-19T11:30:22.587Z,98750.75
2023-04-19T11:32:50.836Z,98747.44
2023-04-19T11:35:22.358Z,98728.31
2023-04-19T11:37:49.172Z,98742.78
2023-04-19T11:40:20.853Z,98742.81
2023-04-19T11:42:53.178Z,98735.88
2023-04-19T11:45:31.101Z,98738.34
2023-04-19T11:48:00.548Z,98729.47
2023-04-19T11:50:38.408Z,98742.59
2023-04-19T11:53:24.548Z,98742.34
2023-04-19T11:55:56.328Z,98712.47
2023-04-19T11:58:37.881Z,98712.63
2023-04-19T12:01:24.604Z,98701.03
2023-04-19T12:03:56.453Z,98711.56
2023-04-19T12:06:27.738Z,98699.84
2023-04-19T12:08:56.002Z,98679.66
2023-04-19T12:11:45.807Z,98677.31
2023-04-19T12:14:16.677Z,98709.63
2023-04-19T12:16:44.891Z,98679.66
2023-04-19T12:19:17.357Z,98674.16
2023-04-19T12:21:45.373Z,98659.47
2023-04-19T12:24:17.483Z,98657.66
2023-04-19T12:27:02.054Z,98662.50
2023-04-19T12:29:29.770Z,98665.84
2023-04-19T12:31:56.283Z,98683.03
2023-04-19T12:34:22.914Z,98670.69
2023-04-19T12:36:49.441Z,98686.66
2023-04-19T12:39:16.294Z,98654.59
2023-04-19T12:41:43.001Z,98648.75
2023-04-19T12:44:09.503Z,98661.25
2023-04-19T12:46:36.929Z,98665.53
2023-04-19T12:49:03.551Z,98669.75
2023-04-19T12:51:30.721Z,98654.53
2023-04-19T12:53:57.413Z,98666.22
2023-04-19T12:56:24.011Z,98634.09
2023-04-19T12:58:50.530Z,98649.72
2023-04-19T13:01:17.152Z,98647.78
2023-04-19T13:03:43.825Z,98664.69
2023-04-19T13:06:14.649Z,98654.63
2023-04-19T13:08:45.484Z,98651.50
2023-04-19T13:11:14.269Z,98650.00
2023-04-19T13:13:40.915Z,98637.56
2023-04-19T13:16:07.994Z,98639.56
2023-04-19T13:18:35.028Z,98632.59
2023-04-19T13:21:01.571Z,98637.47
2023-04-19T13:23:28.209Z,98642.56
2023-04-19T13:25:54.745Z,98633.09
2023-04-19T13:28:21.212Z,98651.38
2023-04-19T13:30:47.729Z,98651.28
2023-04-19T13:33:14.275Z,98624.84
2023-04-19T13:35:40.773Z,98641.41
2023-04-19T13:38:07.454Z,98628.00
2023-04-19T13:40:34.141Z,98623.34
2023-04-19T13:43:01.203Z,98619.63
2023-04-19T13:45:27.768Z,98627.66
2023-04-19T13:47:54.363Z,98632.50
2023-04-19T13:50:21.108Z,98630.59
2023-04-19T13:52:47.745Z,98625.75
2023-04-19T13:55:14.241Z,98643.00
2023-04-19T13:57:40.896Z,98618.16
2023-04-19T14:00:08.308Z,98623.44
2023-04-19T14:02:35.170Z,98632.50
2023-04-19T14:05:01.758Z,98639.09
2023-04-19T14:07:28.397Z,98671.66
2023-04-19T14:09:54.906Z,98670.72
2023-04-19T14:12:21.550Z,98653.56
2023-04-19T14:14:48.101Z,98645.31
2023-04-19T14:17:14.686Z,98640.09
2023-04-19T14:19:41.313Z,98627.97
2023-04-19T14:22:07.888Z,98644.00
2023-04-19T14:24:34.363Z,98633.69
2023-04-19T14:27:09.590Z,98637.53
2023-04-19T14:29:37.305Z,98644.03
2023-04-19T14:32:17.059Z,98636.06
2023-04-19T14:34:51.420Z,98636.50
2023-04-19T14:37:18.981Z,98644.63
2023-04-19T14:39:46.020Z,98645.59
2023-04-19T14:42:12.692Z,98640.06
2023-04-19T14:44:40.220Z,98622.50
2023-04-19T14:47:07.039Z,98642.41
2023-04-19T14:49:33.590Z,98629.41
2023-04-19T14:52:00.152Z,98621.97
2023-04-19T14:54:26.645Z,98628.84
2023-04-19T14:56:53.666Z,98633.94
2023-04-19T14:59:20.490Z,98638.94
2023-04-19T15:01:47.395Z,98643.06
2023-04-19T15:04:14.423Z,98650.94
2023-04-19T15:06:41.353Z,98631.66
2023-04-19T15:09:08.007Z,98645.31
2023-04-19T15:11:34.506Z,98651.81
2023-04-19T15:14:01.047Z,98638.59
2023-04-19T15:16:27.986Z,98646.31
2023-04-19T15:18:54.635Z,98652.13
2023-04-19T15:21:24.407Z,98652.22
2023-04-19T15:23:51.538Z,98639.41
2023-04-19T15:26:18.114Z,98630.75
2023-04-19T15:28:44.719Z,98660.88
2023-04-19T15:31:40.370Z,98635.06
2023-04-19T15:34:06.937Z,98656.44
2023-04-19T15:36:33.523Z,98657.88
2023-04-19T15:39:00.102Z,98648.31
2023-04-19T15:41:26.847Z,98648.16
2023-04-19T15:43:53.445Z,98654.88
2023-04-19T15:46:20.084Z,98651.84
2023-04-19T15:48:48.272Z,98639.25
2023-04-19T15:51:15.346Z,98636.34
2023-04-19T15:53:42.399Z,98646.78
2023-04-19T15:56:10.940Z,98644.63
2023-04-19T15:58:37.740Z,98632.16
2023-04-19T16:01:11.422Z,98641.31
2023-04-19T16:03:38.279Z,98627.88
2023-04-19T16:06:05.105Z,98627.50
2023-04-19T16:08:31.607Z,98641.56
2023-04-19T16:10:58.259Z,98630.50
2023-04-19T16:13:24.850Z,98618.09
2023-04-19T16:15:51.416Z,98640.91
2023-04-19T16:18:17.927Z,98635.88
2023-04-19T16:20:44.456Z,98640.56
2023-04-19T16:23:11.065Z,98651.16
2023-04-19T16:25:37.722Z,98650.66
2023-04-19T16:28:04.303Z,98643.94
2023-04-19T16:30:30.894Z,98640.09
2023-04-19T16:32:58.862Z,98648.47
2023-04-19T16:35:26.523Z,98648.81
2023-04-19T16:37:55.192Z,98649.69
2023-04-19T16:40:23.419Z,98651.75
2023-04-19T16:42:50.124Z,98665.47
2023-04-19T16:45:17.688Z,98652.78
2023-04-19T16:47:45.967Z,98658.66
2023-04-19T16:50:13.581Z,98642.75
2023-04-19T16:52:40.436Z,98639.38
2023-04-19T16:55:07.743Z,98643.19
2023-04-19T16:57:34.512Z,98647.31
2023-04-19T17:00:01.217Z,98642.97
2023-04-19T17:02:28.060Z,98633.72
2023-04-19T17:05:16.049Z,98642.59
2023-04-19T17:08:02.985Z,98634.25
2023-04-19T17:10:50.012Z,98655.78
2023-04-19T17:13:37.703Z,98650.06
2023-04-19T17:16:24.949Z,98639.13
2023-04-19T17:19:11.902Z,98633.88
2023-04-19T17:22:04.905Z,98635.72
2023-04-19T17:24:53.979Z,98634.03
2023-04-19T17:27:40.969Z,98631.66
2023-04-19T17:30:28.173Z,98642.91
2023-04-19T17:33:15.080Z,98621.97
2023-04-19T17:36:01.977Z,98621.53
2023-04-19T17:38:49.988Z,98630.69
2023-04-19T17:41:36.803Z,98626.59
2023-04-19T17:44:23.863Z,98613.97
2023-04-19T17:47:10.779Z,98635.84
2023-04-19T17:50:06.598Z,98626.03
2023-04-19T17:52:54.928Z,98620.06
2023-04-19T17:55:41.833Z,98625.59
2023-04-19T17:58:28.753Z,98607.88
2023-04-19T18:01:16.313Z,98601.81
2023-04-19T18:04:03.664Z,98616.91
2023-04-19T18:06:50.839Z,98620.31
2023-04-19T18:09:37.658Z,98578.09
2023-04-19T18:12:24.558Z,98606.41
2023-04-19T18:15:11.724Z,98611.38
2023-04-19T18:17:58.654Z,98598.22
2023-04-19T18:20:45.624Z,98596.94
2023-04-19T18:23:32.834Z,98597.97
2023-04-19T18:26:21.380Z,98603.88
2023-04-19T18:29:09.142Z,98614.22
2023-04-19T18:31:55.981Z,98602.34
2023-04-19T18:34:42.849Z,98611.06
2023-04-19T18:37:29.936Z,98627.50
2023-04-19T18:40:17.652Z,98628.41
2023-04-19T18:43:04.574Z,98614.50
2023-04-19T18:45:57.939Z,98627.44
2023-04-19T18:48:46.172Z,98629.91
2023-04-19T18:51:33.156Z,98629.69
2023-04-19T18:54:20.070Z,98612.34
2023-04-19T18:57:22.490Z,98626.53
2023-04-19T19:00:11.252Z,98635.81
2023-04-19T19:03:00.096Z,98616.44
2023-04-19T19:05:47.735Z,98625.97
2023-04-19T19:08:34.974Z,98623.75
2023-04-19T19:11:47.228Z,98618.75
2023-04-19T19:14:29.524Z,98622.09
2023-04-19T19:17:16.385Z,98602.91
2023-04-19T19:20:05.128Z,98598.91
2023-04-19T19:22:52.057Z,98624.19
2023-04-19T19:25:39.090Z,98623.91
2023-04-19T19:28:26.866Z,98614.50
2023-04-19T19:31:13.780Z,98609.34
2023-04-19T19:34:18.675Z,98609.13
2023-04-19T19:37:07.516Z,98610.22
2023-04-19T19:39:56.264Z,98615.28
2023-04-19T19:42:43.584Z,98607.56
2023-04-19T19:45:31.276Z,98603.34
2023-04-19T19:48:18.248Z,98601.28
2023-04-19T19:51:28.642Z,98590.44
2023-04-19T19:54:12.856Z,98577.41
2023-04-19T19:57:57.294Z,98558.41
